createdAt,value
2022-12-28T00:01:53.936Z,95189.13
2022-12-28T00:04:21.881Z,95193.25
2022-12-28T00:06:50.700Z,95180.75
2022-12-28T00:09:18.959Z,95168.41
2022-12-28T00:11:48.319Z,95173.56
2022-12-28T00:14:16.183Z,95189.75
2022-12-28T00:16:45.311Z,95168.25
2022-12-28T00:19:15.527Z,95184.44
2022-12-28T00:21:44.541Z,95190.03
2022-12-28T00:24:18.950Z,95176.91
2022-12-28T00:26:48.527Z,95172.19
2022-12-28T00:29:16.562Z,95172.16
2022-12-28T00:31:46.017Z,95177.44
2022-12-28T00:34:14.790Z,95166.72
2022-12-28T00:37:09.948Z,95147.56
2022-12-28T00:39:31.292Z,95126.59
2022-12-28T00:42:00.786Z,95119.31
2022-12-28T00:44:28.937Z,95107.19
2022-12-28T00:46:56.950Z,95083.16
2022-12-28T00:49:24.853Z,95041.88
2022-12-28T00:51:54.278Z,95028.09
2022-12-28T00:54:24.011Z,95010.00
2022-12-28T00:56:52.166Z,94980.63
2022-12-28T00:59:21.635Z,94921.50
2022-12-28T01:01:49.756Z,94913.66
2022-12-28T01:04:18.092Z,94893.75
2022-12-28T01:06:45.940Z,94899.88
2022-12-28T01:09:13.947Z,94879.38
2022-12-28T01:11:41.900Z,94862.50
2022-12-28T01:14:10.094Z,94852.81
2022-12-28T01:16:39.624Z,94850.16
2022-12-28T01:19:10.017Z,94844.03
2022-12-28T01:21:38.085Z,94846.47
2022-12-28T01:24:07.944Z,94816.06
2022-12-28T01:26:36.215Z,94821.81
2022-12-28T01:29:04.238Z,94816.06
2022-12-28T01:31:33.924Z,94794.06
2022-12-28T01:34:04.189Z,94789.56
2022-12-28T01:36:35.025Z,94795.94
2022-12-28T01:39:05.824Z,94766.34
2022-12-28T01:41:37.860Z,94741.25
2022-12-28T01:44:51.635Z,94732.25
2022-12-28T01:47:24.584Z,94713.75
2022-12-28T01:49:59.825Z,94699.75
2022-12-28T01:52:33.955Z,94692.56
2022-12-28T01:55:08.059Z,94671.38
2022-12-28T01:57:40.878Z,94658.25
2022-12-28T02:00:12.009Z,94643.84
2022-12-28T02:02:51.537Z,94618.53
2022-12-28T02:05:25.561Z,94619.53
2022-12-28T02:07:59.753Z,94613.19
2022-12-28T02:10:43.685Z,94584.53
2022-12-28T02:13:15.361Z,94573.06
2022-12-28T02:15:43.775Z,94547.53
2022-12-28T02:18:14.453Z,94546.09
2022-12-28T02:21:00.583Z,94535.78
2022-12-28T02:23:51.886Z,94511.63
2022-12-28T02:26:36.876Z,94498.03
2022-12-28T02:29:40.379Z,94474.78
2022-12-28T02:32:21.471Z,94461.78
2022-12-28T02:34:59.115Z,94471.47
2022-12-28T02:37:32.451Z,94451.22
2022-12-28T02:40:06.140Z,94461.56
2022-12-28T02:42:37.807Z,94441.03
2022-12-28T02:45:20.695Z,94437.78
2022-12-28T02:48:08.208Z,94415.84
2022-12-28T02:50:49.625Z,94418.66
2022-12-28T02:53:34.961Z,94410.44
2022-12-28T02:56:17.059Z,94403.59
2022-12-28T02:59:13.668Z,94387.25
2022-12-28T03:01:53.355Z,94387.91
2022-12-28T03:04:31.365Z,94373.41
2022-12-28T03:07:22.667Z,94382.50
2022-12-28T03:09:55.602Z,94357.44
2022-12-28T03:12:30.588Z,94368.44
2022-12-28T03:15:05.517Z,94376.38
2022-12-28T03:17:54.266Z,94347.69
2022-12-28T03:20:44.773Z,94350.91
2022-12-28T03:23:34.599Z,94336.72
2022-12-28T03:26:26.610Z,94336.72
2022-12-28T03:29:14.165Z,94346.81
2022-12-28T03:31:45.285Z,94314.81
2022-12-28T03:34:16.305Z,94303.38
2022-12-28T03:36:59.158Z,94275.84
2022-12-28T03:39:36.543Z,94283.66
2022-12-28T03:42:30.376Z,94258.53
2022-12-28T03:45:03.003Z,94249.34
2022-12-28T03:47:34.857Z,94246.06
2022-12-28T03:50:02.891Z,94229.91
2022-12-28T03:52:33.675Z,94216.19
2022-12-28T03:55:05.003Z,94219.00
2022-12-28T03:57:33.668Z,94206.78
2022-12-28T04:00:04.812Z,94215.50
2022-12-28T04:02:44.035Z,94190.59
2022-12-28T04:05:12.990Z,94179.66
2022-12-28T04:07:43.598Z,94186.88
2022-12-28T04:10:12.709Z,94192.56
2022-12-28T04:12:40.696Z,94169.19
2022-12-28T04:15:32.210Z,94144.63
2022-12-28T04:18:01.965Z,94152.88
2022-12-28T04:20:30.164Z,94130.13
2022-12-28T04:22:59.727Z,94136.44
2022-12-28T04:25:28.670Z,94121.78
2022-12-28T04:27:57.297Z,94139.47
2022-12-28T04:30:45.620Z,94112.91
2022-12-28T04:33:13.838Z,94103.47
2022-12-28T04:35:46.203Z,94078.97
2022-12-28T04:38:15.846Z,94083.75
2022-12-28T04:40:44.042Z,94072.63
2022-12-28T04:43:12.132Z,94068.81
2022-12-28T04:45:40.475Z,94084.16
2022-12-28T04:48:08.641Z,94102.13
2022-12-28T04:50:37.571Z,94109.59
2022-12-28T04:53:05.427Z,94118.97
2022-12-28T04:55:35.587Z,94117.53
2022-12-28T04:58:05.100Z,94112.84
2022-12-28T05:00:33.040Z,94088.94
2022-12-28T05:03:01.184Z,94088.72
2022-12-28T05:05:29.696Z,94087.91
2022-12-28T05:08:01.674Z,94092.34
2022-12-28T05:10:29.899Z,94075.88
2022-12-28T05:12:59.185Z,94083.00
2022-12-28T05:15:27.084Z,94053.22
2022-12-28T05:17:56.283Z,94057.16
2022-12-28T05:20:24.231Z,94056.47
2022-12-28T05:22:52.076Z,94086.75
2022-12-28T05:25:20.026Z,94086.34
2022-12-28T05:27:47.958Z,94050.25
2022-12-28T05:30:17.680Z,94053.19
2022-12-28T05:32:45.605Z,94036.13
2022-12-28T05:35:13.481Z,94021.19
2022-12-28T05:37:41.527Z,94021.50
2022-12-28T05:40:10.646Z,94030.84
2022-12-28T05:42:38.748Z,94009.78
2022-12-28T05:45:07.597Z,94004.06
2022-12-28T05:47:36.991Z,94000.28
2022-12-28T05:50:05.465Z,94028.00
2022-12-28T05:52:33.476Z,94055.28
2022-12-28T05:55:01.368Z,94060.34
2022-12-28T05:57:29.432Z,94081.75
2022-12-28T05:59:57.304Z,94076.41
2022-12-28T06:02:27.593Z,94084.53
2022-12-28T06:04:57.298Z,94075.94
2022-12-28T06:07:25.245Z,94083.88
2022-12-28T06:09:53.211Z,94088.66
2022-12-28T06:12:21.058Z,94079.22
2022-12-28T06:14:49.006Z,94070.00
2022-12-28T06:17:16.966Z,94096.03
2022-12-28T06:19:44.908Z,94099.88
2022-12-28T06:22:14.195Z,94066.81
2022-12-28T06:24:42.164Z,94075.63
2022-12-28T06:27:10.168Z,94080.63
2022-12-28T06:29:38.080Z,94076.06
2022-12-28T06:32:06.292Z,94073.25
2022-12-28T06:34:34.112Z,94066.31
2022-12-28T06:37:02.029Z,94088.75
2022-12-28T06:39:31.397Z,94062.81
2022-12-28T06:41:59.378Z,94061.16
2022-12-28T06:44:27.924Z,94054.25
2022-12-28T06:46:55.900Z,94069.59
2022-12-28T06:49:23.802Z,94069.59
2022-12-28T06:51:51.774Z,94042.81
2022-12-28T06:54:19.603Z,94041.25
2022-12-28T06:56:48.940Z,94042.31
2022-12-28T06:59:16.974Z,94059.91
2022-12-28T07:01:46.105Z,94054.75
2022-12-28T07:04:14.644Z,94057.44
2022-12-28T07:06:44.548Z,94061.44
2022-12-28T07:09:14.604Z,94046.03
2022-12-28T07:11:42.800Z,94037.75
2022-12-28T07:14:13.019Z,94016.38
2022-12-28T07:19:08.372Z,93963.72
2022-12-28T07:21:38.394Z,93941.19
2022-12-28T07:24:07.455Z,93931.03
2022-12-28T07:26:37.222Z,93926.91
2022-12-28T07:29:07.126Z,93908.03
2022-12-28T07:31:44.724Z,93911.06
2022-12-28T07:34:13.812Z,93909.38
2022-12-28T07:36:42.034Z,93923.22
2022-12-28T07:39:10.583Z,93893.25
2022-12-28T07:41:38.596Z,93902.03
2022-12-28T07:44:07.265Z,93895.25
2022-12-28T07:46:38.095Z,93900.38
2022-12-28T07:49:06.781Z,93897.22
2022-12-28T07:51:36.529Z,93891.56
2022-12-28T07:54:05.826Z,93885.19
2022-12-28T07:59:02.515Z,93853.41
2022-12-28T08:01:32.371Z,93878.88
2022-12-28T08:04:03.831Z,93873.72
2022-12-28T08:06:34.411Z,93880.88
2022-12-28T08:09:03.341Z,93881.28
2022-12-28T08:11:33.314Z,93869.16
2022-12-28T08:14:02.134Z,93853.97
2022-12-28T08:16:32.953Z,93823.16
2022-12-28T08:19:02.515Z,93821.81
2022-12-28T08:21:32.905Z,93804.72
2022-12-28T08:24:01.756Z,93780.16
2022-12-28T08:26:31.338Z,93758.81
2022-12-28T08:29:01.622Z,93770.03
2022-12-28T08:31:32.009Z,93762.34
2022-12-28T08:34:03.149Z,93784.22
2022-12-28T08:36:31.223Z,93765.09
2022-12-28T08:38:59.516Z,93760.63
2022-12-28T08:41:28.767Z,93790.81
2022-12-28T08:43:57.705Z,93794.06
2022-12-28T08:46:27.373Z,93780.19
2022-12-28T08:48:57.528Z,93757.38
2022-12-28T08:51:28.254Z,93757.13
2022-12-28T08:53:56.115Z,93767.88
2022-12-28T08:56:25.699Z,93762.84
2022-12-28T08:58:54.019Z,93768.69
2022-12-28T09:01:24.328Z,93761.44
2022-12-28T09:03:55.542Z,93754.25
2022-12-28T09:06:27.575Z,93737.72
2022-12-28T09:09:05.512Z,93745.47
2022-12-28T09:11:35.824Z,93752.66
2022-12-28T09:14:04.757Z,93738.22
2022-12-28T09:16:33.011Z,93739.56
2022-12-28T09:19:03.186Z,93715.25
2022-12-28T09:21:34.610Z,93720.84
2022-12-28T09:24:03.557Z,93713.59
2022-12-28T09:26:33.588Z,93709.88
2022-12-28T09:29:03.326Z,93720.06
2022-12-28T09:31:32.627Z,93719.75
2022-12-28T09:36:51.146Z,93676.63
2022-12-28T09:39:24.603Z,93668.88
2022-12-28T09:41:56.332Z,93665.91
2022-12-28T09:44:49.511Z,93658.44
2022-12-28T09:47:31.886Z,93654.91
2022-12-28T09:50:25.870Z,93661.91
2022-12-28T09:53:06.496Z,93628.97
2022-12-28T09:55:36.502Z,93648.59
2022-12-28T09:58:06.617Z,93649.66
2022-12-28T10:00:40.258Z,93658.78
2022-12-28T10:03:15.908Z,93675.13
2022-12-28T10:05:44.525Z,93673.00
2022-12-28T10:08:17.004Z,93663.66
2022-12-28T10:10:48.901Z,93686.41
2022-12-28T10:13:53.022Z,93670.38
2022-12-28T10:16:17.264Z,93663.34
2022-12-28T10:18:45.601Z,93695.03
2022-12-28T10:21:14.650Z,93697.50
2022-12-28T10:24:20.733Z,93680.63
2022-12-28T10:26:34.307Z,93693.75
2022-12-28T10:29:02.337Z,93698.31
2022-12-28T10:31:34.972Z,93707.19
2022-12-28T10:34:03.762Z,93690.34
2022-12-28T10:36:35.063Z,93717.19
2022-12-28T10:39:05.674Z,93697.03
2022-12-28T10:41:37.983Z,93706.97
2022-12-28T10:44:39.036Z,93688.19
2022-12-28T10:47:18.261Z,93697.84
2022-12-28T10:50:10.539Z,93692.75
2022-12-28T10:52:40.184Z,93686.88
2022-12-28T10:55:28.022Z,93683.38
2022-12-28T11:00:50.441Z,93688.00
2022-12-28T11:03:24.879Z,93663.00
2022-12-28T11:06:09.282Z,93652.00
2022-12-28T11:08:37.298Z,93672.13
2022-12-28T11:11:07.149Z,93658.22
2022-12-28T11:13:35.199Z,93673.28
2022-12-28T11:16:07.909Z,93685.63
2022-12-28T11:18:38.049Z,93699.66
2022-12-28T11:21:06.477Z,93712.78
2022-12-28T11:23:35.538Z,93712.53
2022-12-28T11:26:03.867Z,93720.63
2022-12-28T11:28:34.938Z,93737.28
2022-12-28T11:31:06.267Z,93741.59
2022-12-28T11:33:43.455Z,93751.81
2022-12-28T11:36:16.289Z,93774.94
2022-12-28T11:38:45.429Z,93726.09
2022-12-28T11:41:34.284Z,93772.78
2022-12-28T11:44:05.597Z,93779.03
2022-12-28T11:46:44.989Z,93775.53
2022-12-28T11:49:33.910Z,93770.72
2022-12-28T11:52:44.777Z,93767.22
2022-12-28T11:55:43.115Z,93784.16
2022-12-28T11:58:54.099Z,93807.81
2022-12-28T12:01:46.120Z,93787.44
2022-12-28T12:04:39.489Z,93815.16
2022-12-28T12:07:19.694Z,93831.78
2022-12-28T12:09:49.921Z,93852.53
2022-12-28T12:12:47.455Z,93844.94
2022-12-28T12:15:19.183Z,93833.44
2022-12-28T12:17:51.438Z,93868.91
2022-12-28T12:20:48.719Z,93851.50
2022-12-28T12:23:48.780Z,93886.38
2022-12-28T12:26:28.843Z,93907.16
2022-12-28T12:29:01.792Z,93911.19
2022-12-28T12:31:32.628Z,93945.03
2022-12-28T12:34:08.354Z,93943.44
2022-12-28T12:36:53.676Z,93957.91
2022-12-28T12:39:37.049Z,93940.19
2022-12-28T12:42:15.457Z,93948.53
2022-12-28T12:44:55.542Z,93962.44
2022-12-28T12:47:54.669Z,94001.22
2022-12-28T12:50:47.608Z,93955.16
2022-12-28T12:53:32.269Z,93973.84
2022-12-28T12:56:07.658Z,93951.88
2022-12-28T12:58:50.221Z,93988.13
2022-12-28T13:01:30.070Z,93998.91
2022-12-28T13:04:02.953Z,93988.50
2022-12-28T13:06:32.477Z,94020.16
2022-12-28T13:09:05.594Z,94028.75
2022-12-28T13:11:38.087Z,94046.69
2022-12-28T13:14:06.958Z,94056.66
2022-12-28T13:16:35.251Z,94049.94
2022-12-28T13:19:05.917Z,94055.56
2022-12-28T13:21:43.977Z,94041.19
2022-12-28T13:24:20.759Z,94034.50
2022-12-28T13:26:49.085Z,94082.38
2022-12-28T13:29:20.020Z,94071.66
2022-12-28T13:31:49.865Z,94057.97
2022-12-28T13:34:23.326Z,94079.47
2022-12-28T13:36:56.499Z,94103.56
2022-12-28T13:39:25.841Z,94084.53
2022-12-28T13:41:56.376Z,94078.97
2022-12-28T13:44:39.480Z,94055.44
2022-12-28T13:47:14.020Z,94072.63
2022-12-28T13:49:46.140Z,94106.66
2022-12-28T13:52:19.881Z,94118.50
2022-12-28T13:54:53.735Z,94117.50
2022-12-28T14:00:13.142Z,94124.66
2022-12-28T14:02:42.756Z,94166.84
2022-12-28T14:05:17.757Z,94157.78
2022-12-28T14:07:47.937Z,94157.31
2022-12-28T14:10:16.696Z,94187.34
2022-12-28T14:12:46.304Z,94178.81
2022-12-28T14:15:15.029Z,94185.50
2022-12-28T14:17:44.574Z,94157.13
2022-12-28T14:20:13.125Z,94180.59
2022-12-28T14:22:42.208Z,94194.72
2022-12-28T14:25:14.707Z,94162.09
2022-12-28T14:27:45.332Z,94158.34
2022-12-28T14:30:24.677Z,94163.72
2022-12-28T14:32:54.114Z,94138.81
2022-12-28T14:35:25.561Z,94159.16
2022-12-28T14:37:55.530Z,94179.72
2022-12-28T14:40:31.325Z,94130.25
2022-12-28T14:43:02.466Z,94125.22
2022-12-28T14:46:05.345Z,94154.91
2022-12-28T14:51:31.140Z,94164.97
2022-12-28T14:54:16.775Z,94206.63
2022-12-28T14:56:49.871Z,94198.88
2022-12-28T14:59:22.641Z,94213.53
2022-12-28T15:00:16.329Z,94166.47
2022-12-28T15:01:50.891Z,94258.75
2022-12-28T15:04:35.953Z,94261.22
2022-12-28T15:07:04.227Z,94280.41
2022-12-28T15:09:32.161Z,94309.75
2022-12-28T15:12:17.805Z,94338.28
2022-12-28T15:14:46.132Z,94348.06
2022-12-28T15:17:14.157Z,94395.00
2022-12-28T15:19:43.372Z,94398.28
2022-12-28T15:22:11.370Z,94423.88
2022-12-28T15:24:41.561Z,94460.56
2022-12-28T15:27:09.797Z,94464.00
2022-12-28T15:30:04.217Z,94497.19
2022-12-28T15:32:28.068Z,94449.47
2022-12-28T15:34:56.123Z,94484.53
2022-12-28T15:37:24.071Z,94512.41
2022-12-28T15:39:52.072Z,94523.66
2022-12-28T15:42:20.065Z,94534.06
2022-12-28T15:44:51.176Z,94538.09
2022-12-28T15:47:19.735Z,94540.63
2022-12-28T15:49:47.681Z,94555.25
2022-12-28T15:52:15.654Z,94552.56
2022-12-28T15:54:47.102Z,94551.84
2022-12-28T15:57:15.833Z,94565.56
2022-12-28T15:59:43.896Z,94571.13
2022-12-28T16:02:13.763Z,94553.03
2022-12-28T16:04:41.965Z,94595.56
2022-12-28T16:07:10.236Z,94602.38
2022-12-28T16:09:38.187Z,94614.56
2022-12-28T16:12:06.505Z,94601.63
2022-12-28T16:14:34.540Z,94631.84
2022-12-28T16:17:02.638Z,94635.69
2022-12-28T16:19:32.001Z,94657.53
2022-12-28T16:22:00.009Z,94695.91
2022-12-28T16:24:29.218Z,94714.06
2022-12-28T16:26:57.288Z,94706.78
2022-12-28T16:29:25.316Z,94729.59
2022-12-28T16:31:55.182Z,94743.88
2022-12-28T16:34:23.549Z,94756.25
2022-12-28T16:36:57.106Z,94759.91
2022-12-28T16:39:25.683Z,94773.22
2022-12-28T16:41:53.848Z,94797.66
2022-12-28T16:44:23.493Z,94811.34
2022-12-28T16:46:51.962Z,94845.28
2022-12-28T16:49:19.980Z,94847.16
2022-12-28T16:51:48.582Z,94843.09
2022-12-28T16:54:19.524Z,94855.47
2022-12-28T16:56:48.175Z,94819.19
2022-12-28T16:59:17.721Z,94827.03
2022-12-28T17:01:46.243Z,94833.50
2022-12-28T17:04:14.934Z,94800.75
2022-12-28T17:06:43.916Z,94783.75
2022-12-28T17:09:11.875Z,94740.88
2022-12-28T17:11:41.204Z,94690.59
2022-12-28T17:14:12.546Z,94644.91
2022-12-28T17:16:40.778Z,94595.03
2022-12-28T17:19:08.951Z,94531.09
2022-12-28T17:21:37.159Z,94483.91
2022-12-28T17:24:05.878Z,94397.41
2022-12-28T17:26:34.018Z,94350.75
2022-12-28T17:29:04.325Z,94271.34
2022-12-28T17:31:32.411Z,94211.31
2022-12-28T17:34:00.504Z,94140.84
2022-12-28T17:36:28.699Z,94139.75
2022-12-28T17:38:56.723Z,94087.72
2022-12-28T17:41:27.755Z,94035.06
2022-12-28T17:43:57.341Z,93979.19
2022-12-28T17:46:28.983Z,93944.44
2022-12-28T17:48:58.733Z,93912.56
2022-12-28T17:51:29.035Z,93886.38
2022-12-28T17:53:57.682Z,93814.75
2022-12-28T17:56:26.299Z,93765.59
2022-12-28T17:58:56.507Z,93709.44
2022-12-28T18:01:27.993Z,93694.00
2022-12-28T18:03:56.542Z,93646.19
2022-12-28T18:06:24.811Z,93612.34
2022-12-28T18:08:52.962Z,93603.94
2022-12-28T18:11:21.158Z,93566.88
2022-12-28T18:13:49.772Z,93537.41
2022-12-28T18:16:21.263Z,93498.97
2022-12-28T18:18:50.631Z,93457.38
2022-12-28T18:21:21.975Z,93417.66
2022-12-28T18:23:51.927Z,93385.47
2022-12-28T18:26:22.271Z,93362.56
2022-12-28T18:28:50.706Z,93346.47
2022-12-28T18:31:20.049Z,93318.63
2022-12-28T18:33:48.615Z,93314.88
2022-12-28T18:36:18.692Z,93313.44
2022-12-28T18:38:48.365Z,93299.22
2022-12-28T18:41:18.406Z,93269.75
2022-12-28T18:43:46.554Z,93277.22
2022-12-28T18:46:15.192Z,93254.69
2022-12-28T18:48:43.728Z,93251.44
2022-12-28T18:51:13.846Z,93259.22
2022-12-28T18:53:43.942Z,93251.75
2022-12-28T18:56:14.114Z,93257.66
2022-12-28T18:58:42.826Z,93267.00
2022-12-28T19:01:39.751Z,93271.28
2022-12-28T19:04:01.819Z,93250.91
2022-12-28T19:06:30.354Z,93240.16
2022-12-28T19:09:02.056Z,93251.72
2022-12-28T19:11:30.680Z,93262.97
2022-12-28T19:13:58.695Z,93264.81
2022-12-28T19:16:31.386Z,93265.94
2022-12-28T19:19:00.407Z,93272.91
2022-12-28T19:21:30.791Z,93287.88
2022-12-28T19:24:06.913Z,93283.06
2022-12-28T19:26:36.624Z,93290.91
2022-12-28T19:29:05.133Z,93287.09
2022-12-28T19:31:34.461Z,93327.03
2022-12-28T19:34:02.537Z,93328.38
2022-12-28T19:36:31.065Z,93335.13
2022-12-28T19:39:00.563Z,93363.56
2022-12-28T19:41:28.478Z,93354.97
2022-12-28T19:43:56.362Z,93364.13
2022-12-28T19:46:31.412Z,93359.78
2022-12-28T19:49:00.272Z,93391.66
2022-12-28T19:51:31.768Z,93408.00
2022-12-28T19:54:02.018Z,93424.41
2022-12-28T19:56:30.160Z,93437.75
2022-12-28T19:59:05.581Z,93437.47
2022-12-28T20:01:36.761Z,93477.19
2022-12-28T20:04:12.415Z,93451.53
2022-12-28T20:06:41.691Z,93497.63
2022-12-28T20:09:12.154Z,93494.47
2022-12-28T20:11:40.791Z,93476.78
2022-12-28T20:14:09.529Z,93450.78
2022-12-28T20:16:37.811Z,93407.59
2022-12-28T20:19:08.182Z,93384.53
2022-12-28T20:21:37.241Z,93358.28
2022-12-28T20:24:06.645Z,93358.25
2022-12-28T20:26:36.756Z,93341.59
2022-12-28T20:29:06.322Z,93319.41
2022-12-28T20:31:34.401Z,93385.16
2022-12-28T20:34:02.332Z,93384.03
2022-12-28T20:36:31.910Z,93370.13
2022-12-28T20:38:59.847Z,93357.81
2022-12-28T20:41:47.206Z,93326.19
2022-12-28T20:44:18.581Z,93289.69
2022-12-28T20:46:46.868Z,93273.03
2022-12-28T20:49:14.867Z,93240.31
2022-12-28T20:51:43.823Z,93222.03
2022-12-28T20:54:11.836Z,93193.88
2022-12-28T20:56:41.853Z,93180.72
2022-12-28T20:59:10.608Z,93169.16
2022-12-28T21:01:41.316Z,93140.72
2022-12-28T21:04:10.504Z,93081.06
2022-12-28T21:06:38.663Z,92993.72
2022-12-28T21:09:06.854Z,92935.16
2022-12-28T21:11:34.868Z,92915.72
2022-12-28T21:14:03.108Z,93012.94
2022-12-28T21:16:31.114Z,93089.28
2022-12-28T21:19:00.597Z,93056.63
2022-12-28T21:21:28.600Z,93049.88
2022-12-28T21:23:56.685Z,93045.78
2022-12-28T21:26:25.810Z,93031.50
2022-12-28T21:28:53.937Z,93013.06
2022-12-28T21:31:22.064Z,93032.00
2022-12-28T21:33:50.041Z,93045.72
2022-12-28T21:36:20.425Z,93022.19
2022-12-28T21:38:49.659Z,93027.59
2022-12-28T21:41:41.402Z,93030.50
2022-12-28T21:44:12.205Z,93031.84
2022-12-28T21:46:40.456Z,93040.97
2022-12-28T21:49:09.447Z,93040.94
2022-12-28T21:51:40.581Z,93040.34
2022-12-28T21:54:11.169Z,93048.50
2022-12-28T21:56:39.948Z,93047.34
2022-12-28T21:59:08.515Z,93038.75
2022-12-28T22:01:54.887Z,93030.16
2022-12-28T22:04:42.334Z,92998.63
2022-12-28T22:07:13.769Z,93004.28
2022-12-28T22:09:59.446Z,93011.44
2022-12-28T22:12:37.192Z,93009.88
2022-12-28T22:15:27.547Z,93050.03
2022-12-28T22:17:57.088Z,93081.31
2022-12-28T22:20:26.044Z,93113.69
2022-12-28T22:22:56.617Z,93129.81
2022-12-28T22:25:25.718Z,93140.00
2022-12-28T22:27:53.919Z,93144.03
2022-12-28T22:30:22.043Z,93158.00
2022-12-28T22:32:50.078Z,93160.44
2022-12-28T22:35:18.110Z,93166.94
2022-12-28T22:37:46.953Z,93178.25
2022-12-28T22:40:16.574Z,93180.41
2022-12-28T22:42:46.133Z,93173.38
2022-12-28T22:45:15.897Z,93174.97
2022-12-28T22:47:44.778Z,93158.81
2022-12-28T22:50:15.164Z,93158.28
2022-12-28T22:52:43.815Z,93171.69
2022-12-28T22:55:12.176Z,93160.94
2022-12-28T22:57:41.630Z,93155.03
2022-12-28T23:00:13.684Z,93146.41
2022-12-28T23:02:43.015Z,93144.31
2022-12-28T23:05:11.444Z,93144.78
2022-12-28T23:07:39.550Z,93136.44
2022-12-28T23:10:10.410Z,93115.09
2022-12-28T23:12:38.595Z,93125.34
2022-12-28T23:15:19.482Z,93118.94
2022-12-28T23:17:48.416Z,93117.78
2022-12-28T23:20:34.170Z,93101.00
2022-12-28T23:23:19.402Z,93105.69
2022-12-28T23:26:04.575Z,93097.28
2022-12-28T23:28:35.852Z,93091.94
2022-12-28T23:31:06.221Z,93072.66
2022-12-28T23:33:34.304Z,93060.00
2022-12-28T23:36:04.418Z,93095.00
2022-12-28T23:38:33.542Z,93120.00
2022-12-28T23:41:23.715Z,93120.00
2022-12-28T23:43:51.953Z,93120.31
2022-12-28T23:46:21.395Z,93109.19
2022-12-28T23:48:49.521Z,93083.91
2022-12-28T23:51:18.068Z,93065.16
2022-12-28T23:53:46.160Z,93062.81
2022-12-28T23:56:14.140Z,93065.53
2022-12-28T23:58:42.152Z,93040.09
